sensor_id;sensor_type;location;lat;lon;timestamp;temperature;humidity
24410;DHT22;12543;53.364;-1.504;2023-06-10T00:00:50;14.50;82.90
24410;DHT22;12543;53.364;-1.504;2023-06-10T00:03:17;14.40;82.80
24410;DHT22;12543;53.364;-1.504;2023-06-10T00:05:45;14.40;82.40
24410;DHT22;12543;53.364;-1.504;2023-06-10T00:08:12;14.40;82.60
24410;DHT22;12543;53.364;-1.504;2023-06-10T00:10:42;14.40;82.90
24410;DHT22;12543;53.364;-1.504;2023-06-10T00:13:09;14.40;82.40
24410;DHT22;12543;53.364;-1.504;2023-06-10T00:15:37;14.40;83.00
24410;DHT22;12543;53.364;-1.504;2023-06-10T00:18:04;14.40;83.30
24410;DHT22;12543;53.364;-1.504;2023-06-10T00:20:31;14.40;84.30
24410;DHT22;12543;53.364;-1.504;2023-06-10T00:22:58;14.40;84.60
24410;DHT22;12543;53.364;-1.504;2023-06-10T00:25:27;14.40;83.00
24410;DHT22;12543;53.364;-1.504;2023-06-10T00:27:55;14.30;82.90
24410;DHT22;12543;53.364;-1.504;2023-06-10T00:30:22;14.30;83.40
24410;DHT22;12543;53.364;-1.504;2023-06-10T00:32:49;14.30;82.90
24410;DHT22;12543;53.364;-1.504;2023-06-10T00:35:16;14.30;86.00
24410;DHT22;12543;53.364;-1.504;2023-06-10T00:37:46;14.30;88.40
24410;DHT22;12543;53.364;-1.504;2023-06-10T00:40:14;14.30;87.20
24410;DHT22;12543;53.364;-1.504;2023-06-10T00:42:41;14.20;84.40
24410;DHT22;12543;53.364;-1.504;2023-06-10T00:45:08;14.20;85.20
24410;DHT22;12543;53.364;-1.504;2023-06-10T00:47:36;14.20;85.40
24410;DHT22;12543;53.364;-1.504;2023-06-10T00:50:03;14.20;88.00
24410;DHT22;12543;53.364;-1.504;2023-06-10T00:52:31;14.20;87.20
24410;DHT22;12543;53.364;-1.504;2023-06-10T00:54:58;14.10;85.80
24410;DHT22;12543;53.364;-1.504;2023-06-10T00:57:26;14.10;86.40
24410;DHT22;12543;53.364;-1.504;2023-06-10T00:59:53;14.10;86.90
24410;DHT22;12543;53.364;-1.504;2023-06-10T01:02:21;14.10;86.40
24410;DHT22;12543;53.364;-1.504;2023-06-10T01:04:48;14.10;87.10
24410;DHT22;12543;53.364;-1.504;2023-06-10T01:07:26;14.00;87.60
24410;DHT22;12543;53.364;-1.504;2023-06-10T01:09:56;14.00;88.70
24410;DHT22;12543;53.364;-1.504;2023-06-10T01:12:43;14.00;90.10
24410;DHT22;12543;53.364;-1.504;2023-06-10T01:15:16;14.00;87.90
24410;DHT22;12543;53.364;-1.504;2023-06-10T01:20:22;13.90;88.50
24410;DHT22;12543;53.364;-1.504;2023-06-10T01:22:49;13.90;90.20
24410;DHT22;12543;53.364;-1.504;2023-06-10T01:25:18;13.90;89.20
24410;DHT22;12543;53.364;-1.504;2023-06-10T01:27:45;13.90;89.30
24410;DHT22;12543;53.364;-1.504;2023-06-10T01:30:14;13.90;88.50
24410;DHT22;12543;53.364;-1.504;2023-06-10T01:32:46;13.80;88.50
24410;DHT22;12543;53.364;-1.504;2023-06-10T01:35:15;13.80;88.20
24410;DHT22;12543;53.364;-1.504;2023-06-10T01:37:44;13.80;89.40
24410;DHT22;12543;53.364;-1.504;2023-06-10T01:40:13;13.80;89.80
24410;DHT22;12543;53.364;-1.504;2023-06-10T01:42:40;13.80;89.60
24410;DHT22;12543;53.364;-1.504;2023-06-10T01:45:08;13.80;88.80
24410;DHT22;12543;53.364;-1.504;2023-06-10T01:47:35;13.80;87.70
24410;DHT22;12543;53.364;-1.504;2023-06-10T01:50:03;13.80;88.10
24410;DHT22;12543;53.364;-1.504;2023-06-10T01:52:31;13.80;89.30
24410;DHT22;12543;53.364;-1.504;2023-06-10T01:54:58;13.80;87.60
24410;DHT22;12543;53.364;-1.504;2023-06-10T01:57:25;13.80;86.90
24410;DHT22;12543;53.364;-1.504;2023-06-10T01:59:52;13.80;87.60
24410;DHT22;12543;53.364;-1.504;2023-06-10T02:02:19;13.70;87.00
24410;DHT22;12543;53.364;-1.504;2023-06-10T02:04:48;13.70;90.60
24410;DHT22;12543;53.364;-1.504;2023-06-10T02:07:16;13.70;90.50
24410;DHT22;12543;53.364;-1.504;2023-06-10T02:09:43;13.70;90.60
24410;DHT22;12543;53.364;-1.504;2023-06-10T02:12:10;13.70;89.30
24410;DHT22;12543;53.364;-1.504;2023-06-10T02:14:39;13.70;87.70
24410;DHT22;12543;53.364;-1.504;2023-06-10T02:17:06;13.70;87.00
24410;DHT22;12543;53.364;-1.504;2023-06-10T02:19:33;13.70;87.40
24410;DHT22;12543;53.364;-1.504;2023-06-10T02:22:03;13.70;89.50
24410;DHT22;12543;53.364;-1.504;2023-06-10T02:24:30;13.70;90.00
24410;DHT22;12543;53.364;-1.504;2023-06-10T02:26:57;13.70;89.80
24410;DHT22;12543;53.364;-1.504;2023-06-10T02:29:27;13.70;88.30
24410;DHT22;12543;53.364;-1.504;2023-06-10T02:31:54;13.70;88.20
24410;DHT22;12543;53.364;-1.504;2023-06-10T02:34:21;13.70;89.20
24410;DHT22;12543;53.364;-1.504;2023-06-10T02:36:48;13.60;87.50
24410;DHT22;12543;53.364;-1.504;2023-06-10T02:39:21;13.60;90.70
24410;DHT22;12543;53.364;-1.504;2023-06-10T02:41:49;13.60;90.60
24410;DHT22;12543;53.364;-1.504;2023-06-10T02:44:17;13.60;90.00
24410;DHT22;12543;53.364;-1.504;2023-06-10T02:46:45;13.60;90.50
24410;DHT22;12543;53.364;-1.504;2023-06-10T02:49:12;13.60;90.40
24410;DHT22;12543;53.364;-1.504;2023-06-10T02:51:40;13.50;90.00
24410;DHT22;12543;53.364;-1.504;2023-06-10T02:54:08;13.60;90.10
24410;DHT22;12543;53.364;-1.504;2023-06-10T02:56:35;13.60;90.10
24410;DHT22;12543;53.364;-1.504;2023-06-10T02:59:07;13.50;90.00
24410;DHT22;12543;53.364;-1.504;2023-06-10T03:01:35;13.50;90.60
24410;DHT22;12543;53.364;-1.504;2023-06-10T03:04:07;13.50;89.50
24410;DHT22;12543;53.364;-1.504;2023-06-10T03:06:35;13.50;90.30
24410;DHT22;12543;53.364;-1.504;2023-06-10T03:09:11;13.50;90.10
24410;DHT22;12543;53.364;-1.504;2023-06-10T03:11:40;13.50;91.10
24410;DHT22;12543;53.364;-1.504;2023-06-10T03:14:07;13.40;90.60
24410;DHT22;12543;53.364;-1.504;2023-06-10T03:16:34;13.50;90.40
24410;DHT22;12543;53.364;-1.504;2023-06-10T03:19:01;13.40;90.70
24410;DHT22;12543;53.364;-1.504;2023-06-10T03:21:28;13.40;90.30
24410;DHT22;12543;53.364;-1.504;2023-06-10T03:23:57;13.40;90.20
24410;DHT22;12543;53.364;-1.504;2023-06-10T03:26:24;13.40;88.90
24410;DHT22;12543;53.364;-1.504;2023-06-10T03:28:51;13.40;89.00
24410;DHT22;12543;53.364;-1.504;2023-06-10T03:31:20;13.40;90.40
24410;DHT22;12543;53.364;-1.504;2023-06-10T03:33:47;13.40;90.10
24410;DHT22;12543;53.364;-1.504;2023-06-10T03:36:15;13.40;90.00
24410;DHT22;12543;53.364;-1.504;2023-06-10T03:38:42;13.40;91.00
24410;DHT22;12543;53.364;-1.504;2023-06-10T03:41:09;13.40;91.40
24410;DHT22;12543;53.364;-1.504;2023-06-10T03:43:40;13.40;90.60
24410;DHT22;12543;53.364;-1.504;2023-06-10T03:46:07;13.30;90.90
24410;DHT22;12543;53.364;-1.504;2023-06-10T03:48:34;13.30;90.10
24410;DHT22;12543;53.364;-1.504;2023-06-10T03:51:01;13.30;90.00
24410;DHT22;12543;53.364;-1.504;2023-06-10T03:53:28;13.30;90.00
24410;DHT22;12543;53.364;-1.504;2023-06-10T03:55:55;13.30;90.90
24410;DHT22;12543;53.364;-1.504;2023-06-10T03:58:25;13.30;91.20
24410;DHT22;12543;53.364;-1.504;2023-06-10T04:00:53;13.30;90.50
24410;DHT22;12543;53.364;-1.504;2023-06-10T04:03:28;13.30;89.40
24410;DHT22;12543;53.364;-1.504;2023-06-10T04:05:55;13.30;90.90
24410;DHT22;12543;53.364;-1.504;2023-06-10T04:08:25;13.30;91.20
24410;DHT22;12543;53.364;-1.504;2023-06-10T04:10:52;13.30;90.90
24410;DHT22;12543;53.364;-1.504;2023-06-10T04:13:19;13.30;91.00
24410;DHT22;12543;53.364;-1.504;2023-06-10T04:15:55;13.30;92.10
24410;DHT22;12543;53.364;-1.504;2023-06-10T04:18:23;13.30;90.70
24410;DHT22;12543;53.364;-1.504;2023-06-10T04:20:53;13.30;91.20
24410;DHT22;12543;53.364;-1.504;2023-06-10T04:23:20;13.30;91.20
24410;DHT22;12543;53.364;-1.504;2023-06-10T04:25:47;13.20;90.90
24410;DHT22;12543;53.364;-1.504;2023-06-10T04:28:14;13.20;90.60
24410;DHT22;12543;53.364;-1.504;2023-06-10T04:30:42;13.20;90.10
24410;DHT22;12543;53.364;-1.504;2023-06-10T04:33:12;13.20;90.60
24410;DHT22;12543;53.364;-1.504;2023-06-10T04:35:40;13.20;90.60
24410;DHT22;12543;53.364;-1.504;2023-06-10T04:38:10;13.20;89.70
24410;DHT22;12543;53.364;-1.504;2023-06-10T04:40:37;13.20;90.70
24410;DHT22;12543;53.364;-1.504;2023-06-10T04:43:04;13.20;90.30
24410;DHT22;12543;53.364;-1.504;2023-06-10T04:45:32;13.20;91.50
24410;DHT22;12543;53.364;-1.504;2023-06-10T04:48:00;13.30;91.20
24410;DHT22;12543;53.364;-1.504;2023-06-10T04:50:27;13.30;91.20
24410;DHT22;12543;53.364;-1.504;2023-06-10T04:52:54;13.30;91.90
24410;DHT22;12543;53.364;-1.504;2023-06-10T04:55:24;13.30;91.20
24410;DHT22;12543;53.364;-1.504;2023-06-10T04:57:52;13.20;90.40
24410;DHT22;12543;53.364;-1.504;2023-06-10T05:00:19;13.20;91.10
24410;DHT22;12543;53.364;-1.504;2023-06-10T05:02:46;13.20;92.30
24410;DHT22;12543;53.364;-1.504;2023-06-10T05:05:17;13.20;91.00
24410;DHT22;12543;53.364;-1.504;2023-06-10T05:07:44;13.20;91.60
24410;DHT22;12543;53.364;-1.504;2023-06-10T05:10:11;13.20;91.80
24410;DHT22;12543;53.364;-1.504;2023-06-10T05:12:40;13.20;92.30
24410;DHT22;12543;53.364;-1.504;2023-06-10T05:15:08;13.20;91.60
24410;DHT22;12543;53.364;-1.504;2023-06-10T05:17:35;13.20;91.10
24410;DHT22;12543;53.364;-1.504;2023-06-10T05:20:03;13.20;91.90
24410;DHT22;12543;53.364;-1.504;2023-06-10T05:22:30;13.20;92.60
24410;DHT22;12543;53.364;-1.504;2023-06-10T05:24:57;13.20;92.90
24410;DHT22;12543;53.364;-1.504;2023-06-10T05:27:24;13.30;92.50
24410;DHT22;12543;53.364;-1.504;2023-06-10T05:29:51;13.30;92.50
24410;DHT22;12543;53.364;-1.504;2023-06-10T05:32:18;13.20;91.20
24410;DHT22;12543;53.364;-1.504;2023-06-10T05:34:46;13.20;91.20
24410;DHT22;12543;53.364;-1.504;2023-06-10T05:37:13;13.30;91.10
24410;DHT22;12543;53.364;-1.504;2023-06-10T05:39:40;13.30;92.20
24410;DHT22;12543;53.364;-1.504;2023-06-10T05:42:07;13.30;91.60
24410;DHT22;12543;53.364;-1.504;2023-06-10T05:44:34;13.30;91.20
24410;DHT22;12543;53.364;-1.504;2023-06-10T05:47:02;13.30;91.10
24410;DHT22;12543;53.364;-1.504;2023-06-10T05:49:33;13.40;91.70
24410;DHT22;12543;53.364;-1.504;2023-06-10T05:52:00;13.40;91.10
24410;DHT22;12543;53.364;-1.504;2023-06-10T05:54:27;13.40;91.00
24410;DHT22;12543;53.364;-1.504;2023-06-10T05:56:56;13.40;91.40
24410;DHT22;12543;53.364;-1.504;2023-06-10T05:59:23;13.40;92.00
24410;DHT22;12543;53.364;-1.504;2023-06-10T06:01:50;13.50;91.20
24410;DHT22;12543;53.364;-1.504;2023-06-10T06:04:17;13.50;91.30
24410;DHT22;12543;53.364;-1.504;2023-06-10T06:06:44;13.50;91.30
24410;DHT22;12543;53.364;-1.504;2023-06-10T06:09:11;13.60;91.20
24410;DHT22;12543;53.364;-1.504;2023-06-10T06:11:39;13.60;91.70
24410;DHT22;12543;53.364;-1.504;2023-06-10T06:14:06;13.60;91.40
24410;DHT22;12543;53.364;-1.504;2023-06-10T06:16:33;13.60;91.20
24410;DHT22;12543;53.364;-1.504;2023-06-10T06:19:00;13.70;92.40
24410;DHT22;12543;53.364;-1.504;2023-06-10T06:21:27;13.70;91.50
24410;DHT22;12543;53.364;-1.504;2023-06-10T06:23:54;13.70;91.80
24410;DHT22;12543;53.364;-1.504;2023-06-10T06:26:21;13.70;92.80
24410;DHT22;12543;53.364;-1.504;2023-06-10T06:28:48;13.80;93.00
24410;DHT22;12543;53.364;-1.504;2023-06-10T06:31:16;13.80;93.20
24410;DHT22;12543;53.364;-1.504;2023-06-10T06:33:43;13.80;92.80
24410;DHT22;12543;53.364;-1.504;2023-06-10T06:36:10;13.80;92.30
24410;DHT22;12543;53.364;-1.504;2023-06-10T06:38:37;13.80;92.10
24410;DHT22;12543;53.364;-1.504;2023-06-10T06:41:04;13.90;92.20
24410;DHT22;12543;53.364;-1.504;2023-06-10T06:43:33;13.90;92.00
24410;DHT22;12543;53.364;-1.504;2023-06-10T06:46:21;14.00;91.90
24410;DHT22;12543;53.364;-1.504;2023-06-10T06:48:49;14.00;92.10
24410;DHT22;12543;53.364;-1.504;2023-06-10T06:51:16;14.10;92.50
24410;DHT22;12543;53.364;-1.504;2023-06-10T06:53:43;14.10;92.60
24410;DHT22;12543;53.364;-1.504;2023-06-10T06:56:13;14.20;92.40
24410;DHT22;12543;53.364;-1.504;2023-06-10T06:58:40;14.20;92.30
24410;DHT22;12543;53.364;-1.504;2023-06-10T07:01:08;14.30;92.90
24410;DHT22;12543;53.364;-1.504;2023-06-10T07:03:35;14.30;92.40
24410;DHT22;12543;53.364;-1.504;2023-06-10T07:06:02;14.40;92.90
24410;DHT22;12543;53.364;-1.504;2023-06-10T07:08:29;14.40;92.60
24410;DHT22;12543;53.364;-1.504;2023-06-10T07:10:56;14.50;92.50
24410;DHT22;12543;53.364;-1.504;2023-06-10T07:13:23;14.50;92.90
24410;DHT22;12543;53.364;-1.504;2023-06-10T07:15:50;14.60;92.50
24410;DHT22;12543;53.364;-1.504;2023-06-10T07:18:17;14.70;92.50
24410;DHT22;12543;53.364;-1.504;2023-06-10T07:20:44;14.80;92.80
24410;DHT22;12543;53.364;-1.504;2023-06-10T07:23:11;14.90;92.60
24410;DHT22;12543;53.364;-1.504;2023-06-10T07:25:38;14.90;92.50
24410;DHT22;12543;53.364;-1.504;2023-06-10T07:28:05;15.00;92.50
24410;DHT22;12543;53.364;-1.504;2023-06-10T07:30:32;15.10;92.40
24410;DHT22;12543;53.364;-1.504;2023-06-10T07:32:59;15.20;92.50
24410;DHT22;12543;53.364;-1.504;2023-06-10T07:35:27;15.20;92.60
24410;DHT22;12543;53.364;-1.504;2023-06-10T07:37:54;15.30;92.60
24410;DHT22;12543;53.364;-1.504;2023-06-10T07:40:21;15.40;92.30
24410;DHT22;12543;53.364;-1.504;2023-06-10T07:42:48;15.40;92.40
24410;DHT22;12543;53.364;-1.504;2023-06-10T07:45:15;15.40;92.20
24410;DHT22;12543;53.364;-1.504;2023-06-10T07:47:42;15.50;92.00
24410;DHT22;12543;53.364;-1.504;2023-06-10T07:50:09;15.50;92.30
24410;DHT22;12543;53.364;-1.504;2023-06-10T07:52:39;15.50;92.00
24410;DHT22;12543;53.364;-1.504;2023-06-10T07:55:06;15.50;92.10
24410;DHT22;12543;53.364;-1.504;2023-06-10T07:57:34;15.60;92.20
24410;DHT22;12543;53.364;-1.504;2023-06-10T08:00:03;15.60;92.30
24410;DHT22;12543;53.364;-1.504;2023-06-10T08:02:38;15.70;92.30
24410;DHT22;12543;53.364;-1.504;2023-06-10T08:05:05;15.70;92.50
24410;DHT22;12543;53.364;-1.504;2023-06-10T08:07:33;15.80;92.40
24410;DHT22;12543;53.364;-1.504;2023-06-10T08:10:00;15.80;92.30
24410;DHT22;12543;53.364;-1.504;2023-06-10T08:12:27;15.90;92.40
24410;DHT22;12543;53.364;-1.504;2023-06-10T08:14:55;15.90;92.60
24410;DHT22;12543;53.364;-1.504;2023-06-10T08:17:22;16.00;92.40
24410;DHT22;12543;53.364;-1.504;2023-06-10T08:19:49;16.00;92.40
24410;DHT22;12543;53.364;-1.504;2023-06-10T08:22:16;16.10;92.50
24410;DHT22;12543;53.364;-1.504;2023-06-10T08:24:43;16.10;92.40
24410;DHT22;12543;53.364;-1.504;2023-06-10T08:27:14;16.20;92.40
24410;DHT22;12543;53.364;-1.504;2023-06-10T08:29:41;16.30;92.40
24410;DHT22;12543;53.364;-1.504;2023-06-10T08:32:08;16.40;92.40
24410;DHT22;12543;53.364;-1.504;2023-06-10T08:34:36;16.40;92.50
24410;DHT22;12543;53.364;-1.504;2023-06-10T08:37:03;16.40;92.50
24410;DHT22;12543;53.364;-1.504;2023-06-10T08:39:30;16.50;92.50
24410;DHT22;12543;53.364;-1.504;2023-06-10T08:44:31;16.60;92.60
24410;DHT22;12543;53.364;-1.504;2023-06-10T08:47:00;16.60;92.70
24410;DHT22;12543;53.364;-1.504;2023-06-10T08:49:28;16.70;92.70
24410;DHT22;12543;53.364;-1.504;2023-06-10T08:52:00;16.80;93.00
24410;DHT22;12543;53.364;-1.504;2023-06-10T08:54:30;16.80;92.60
24410;DHT22;12543;53.364;-1.504;2023-06-10T08:56:59;16.90;92.80
24410;DHT22;12543;53.364;-1.504;2023-06-10T08:59:26;16.90;92.70
24410;DHT22;12543;53.364;-1.504;2023-06-10T09:01:53;17.10;92.60
24410;DHT22;12543;53.364;-1.504;2023-06-10T09:04:24;17.10;92.80
24410;DHT22;12543;53.364;-1.504;2023-06-10T09:06:52;17.20;92.80
24410;DHT22;12543;53.364;-1.504;2023-06-10T09:09:19;17.30;92.80
24410;DHT22;12543;53.364;-1.504;2023-06-10T09:11:47;17.40;92.80
24410;DHT22;12543;53.364;-1.504;2023-06-10T09:14:14;17.50;92.80
24410;DHT22;12543;53.364;-1.504;2023-06-10T09:16:43;17.70;93.00
24410;DHT22;12543;53.364;-1.504;2023-06-10T09:19:10;17.80;93.40
24410;DHT22;12543;53.364;-1.504;2023-06-10T09:21:40;17.90;93.00
24410;DHT22;12543;53.364;-1.504;2023-06-10T09:24:07;18.10;92.90
24410;DHT22;12543;53.364;-1.504;2023-06-10T09:26:35;18.20;92.90
24410;DHT22;12543;53.364;-1.504;2023-06-10T09:29:05;18.30;92.70
24410;DHT22;12543;53.364;-1.504;2023-06-10T09:31:34;18.40;92.60
24410;DHT22;12543;53.364;-1.504;2023-06-10T09:34:05;18.50;92.70
24410;DHT22;12543;53.364;-1.504;2023-06-10T09:36:33;18.70;92.90
24410;DHT22;12543;53.364;-1.504;2023-06-10T09:39:01;18.90;93.00
24410;DHT22;12543;53.364;-1.504;2023-06-10T09:41:35;19.10;92.80
24410;DHT22;12543;53.364;-1.504;2023-06-10T09:44:12;19.40;93.50
24410;DHT22;12543;53.364;-1.504;2023-06-10T09:46:41;19.80;94.40
24410;DHT22;12543;53.364;-1.504;2023-06-10T09:49:08;20.50;95.50
24410;DHT22;12543;53.364;-1.504;2023-06-10T09:51:35;21.20;95.70
24410;DHT22;12543;53.364;-1.504;2023-06-10T09:54:03;22.00;95.10
24410;DHT22;12543;53.364;-1.504;2023-06-10T09:56:37;22.70;95.10
24410;DHT22;12543;53.364;-1.504;2023-06-10T09:59:04;23.50;95.10
24410;DHT22;12543;53.364;-1.504;2023-06-10T10:01:33;24.30;93.60
24410;DHT22;12543;53.364;-1.504;2023-06-10T10:04:00;24.90;92.70
24410;DHT22;12543;53.364;-1.504;2023-06-10T10:06:28;25.40;88.70
24410;DHT22;12543;53.364;-1.504;2023-06-10T10:08:56;25.90;91.50
24410;DHT22;12543;53.364;-1.504;2023-06-10T10:11:23;26.50;89.80
24410;DHT22;12543;53.364;-1.504;2023-06-10T10:13:53;27.00;90.40
24410;DHT22;12543;53.364;-1.504;2023-06-10T10:16:24;27.50;88.80
24410;DHT22;12543;53.364;-1.504;2023-06-10T10:18:55;27.90;86.50
24410;DHT22;12543;53.364;-1.504;2023-06-10T10:21:23;28.40;86.40
24410;DHT22;12543;53.364;-1.504;2023-06-10T10:23:58;28.80;86.80
24410;DHT22;12543;53.364;-1.504;2023-06-10T10:26:28;29.10;83.60
24410;DHT22;12543;53.364;-1.504;2023-06-10T10:31:29;29.80;83.90
24410;DHT22;12543;53.364;-1.504;2023-06-10T10:33:58;30.20;85.20
24410;DHT22;12543;53.364;-1.504;2023-06-10T10:36:27;30.60;84.10
24410;DHT22;12543;53.364;-1.504;2023-06-10T10:38:55;30.90;83.90
24410;DHT22;12543;53.364;-1.504;2023-06-10T10:41:23;31.10;79.70
24410;DHT22;12543;53.364;-1.504;2023-06-10T10:43:53;31.30;80.40
24410;DHT22;12543;53.364;-1.504;2023-06-10T10:46:20;31.60;79.60
24410;DHT22;12543;53.364;-1.504;2023-06-10T10:48:51;31.80;79.20
24410;DHT22;12543;53.364;-1.504;2023-06-10T10:51:19;32.00;79.50
24410;DHT22;12543;53.364;-1.504;2023-06-10T10:54:09;32.40;78.20
24410;DHT22;12543;53.364;-1.504;2023-06-10T10:56:33;32.70;78.80
24410;DHT22;12543;53.364;-1.504;2023-06-10T10:59:04;32.90;77.40
24410;DHT22;12543;53.364;-1.504;2023-06-10T11:01:43;33.10;76.20
24410;DHT22;12543;53.364;-1.504;2023-06-10T11:04:13;33.20;73.60
24410;DHT22;12543;53.364;-1.504;2023-06-10T11:06:44;33.30;69.90
24410;DHT22;12543;53.364;-1.504;2023-06-10T11:09:28;33.50;73.40
24410;DHT22;12543;53.364;-1.504;2023-06-10T11:11:59;33.60;74.40
24410;DHT22;12543;53.364;-1.504;2023-06-10T11:14:27;33.80;74.30
24410;DHT22;12543;53.364;-1.504;2023-06-10T11:16:57;34.00;72.80
24410;DHT22;12543;53.364;-1.504;2023-06-10T11:19:34;34.10;73.10
24410;DHT22;12543;53.364;-1.504;2023-06-10T11:22:05;34.30;72.70
24410;DHT22;12543;53.364;-1.504;2023-06-10T11:24:33;34.50;72.50
24410;DHT22;12543;53.364;-1.504;2023-06-10T11:27:22;34.70;72.50
24410;DHT22;12543;53.364;-1.504;2023-06-10T11:30:33;34.90;70.90
24410;DHT22;12543;53.364;-1.504;2023-06-10T11:32:35;35.00;68.80
24410;DHT22;12543;53.364;-1.504;2023-06-10T11:35:02;35.10;68.90
24410;DHT22;12543;53.364;-1.504;2023-06-10T11:37:30;35.10;67.90
24410;DHT22;12543;53.364;-1.504;2023-06-10T11:39:57;35.20;69.90
24410;DHT22;12543;53.364;-1.504;2023-06-10T11:42:25;35.30;68.80
24410;DHT22;12543;53.364;-1.504;2023-06-10T11:44:52;35.40;70.20
24410;DHT22;12543;53.364;-1.504;2023-06-10T11:47:20;35.50;67.60
24410;DHT22;12543;53.364;-1.504;2023-06-10T11:49:55;35.60;68.50
24410;DHT22;12543;53.364;-1.504;2023-06-10T11:52:26;35.70;66.30
24410;DHT22;12543;53.364;-1.504;2023-06-10T11:54:54;35.70;67.10
24410;DHT22;12543;53.364;-1.504;2023-06-10T11:57:21;35.80;67.20
24410;DHT22;12543;53.364;-1.504;2023-06-10T11:59:48;36.00;68.90
24410;DHT22;12543;53.364;-1.504;2023-06-10T12:02:16;36.10;70.00
24410;DHT22;12543;53.364;-1.504;2023-06-10T12:04:43;36.30;68.10
24410;DHT22;12543;53.364;-1.504;2023-06-10T12:07:16;36.40;67.80
24410;DHT22;12543;53.364;-1.504;2023-06-10T12:09:43;36.50;66.60
24410;DHT22;12543;53.364;-1.504;2023-06-10T12:12:10;36.60;65.60
24410;DHT22;12543;53.364;-1.504;2023-06-10T12:14:53;36.70;66.50
24410;DHT22;12543;53.364;-1.504;2023-06-10T12:17:21;36.70;65.10
24410;DHT22;12543;53.364;-1.504;2023-06-10T12:19:52;36.70;66.60
24410;DHT22;12543;53.364;-1.504;2023-06-10T12:22:20;36.70;66.70
24410;DHT22;12543;53.364;-1.504;2023-06-10T12:25:00;36.80;67.10
24410;DHT22;12543;53.364;-1.504;2023-06-10T12:27:28;36.80;66.80
24410;DHT22;12543;53.364;-1.504;2023-06-10T12:29:57;36.80;66.50
24410;DHT22;12543;53.364;-1.504;2023-06-10T12:32:36;36.60;66.30
24410;DHT22;12543;53.364;-1.504;2023-06-10T12:35:03;36.40;65.60
24410;DHT22;12543;53.364;-1.504;2023-06-10T12:37:34;36.10;65.80
24410;DHT22;12543;53.364;-1.504;2023-06-10T12:40:06;36.00;65.10
24410;DHT22;12543;53.364;-1.504;2023-06-10T12:42:35;35.80;65.00
24410;DHT22;12543;53.364;-1.504;2023-06-10T12:45:03;35.60;65.10
24410;DHT22;12543;53.364;-1.504;2023-06-10T12:47:30;35.50;65.20
24410;DHT22;12543;53.364;-1.504;2023-06-10T12:50:02;35.40;66.10
24410;DHT22;12543;53.364;-1.504;2023-06-10T12:52:29;35.40;66.80
24410;DHT22;12543;53.364;-1.504;2023-06-10T12:54:57;35.30;64.60
24410;DHT22;12543;53.364;-1.504;2023-06-10T12:57:24;35.20;64.80
24410;DHT22;12543;53.364;-1.504;2023-06-10T12:59:51;35.20;65.70
24410;DHT22;12543;53.364;-1.504;2023-06-10T13:02:24;35.20;65.60
24410;DHT22;12543;53.364;-1.504;2023-06-10T13:04:51;35.20;66.30
24410;DHT22;12543;53.364;-1.504;2023-06-10T13:07:18;35.00;66.00
24410;DHT22;12543;53.364;-1.504;2023-06-10T13:09:45;35.00;65.10
24410;DHT22;12543;53.364;-1.504;2023-06-10T13:12:16;34.90;65.00
24410;DHT22;12543;53.364;-1.504;2023-06-10T13:14:56;35.00;66.80
24410;DHT22;12543;53.364;-1.504;2023-06-10T13:17:23;35.00;66.10
24410;DHT22;12543;53.364;-1.504;2023-06-10T13:19:51;35.10;66.90
24410;DHT22;12543;53.364;-1.504;2023-06-10T13:22:18;35.10;65.20
24410;DHT22;12543;53.364;-1.504;2023-06-10T13:24:46;35.10;65.40
24410;DHT22;12543;53.364;-1.504;2023-06-10T13:27:13;35.10;65.30
24410;DHT22;12543;53.364;-1.504;2023-06-10T13:29:41;35.10;64.00
24410;DHT22;12543;53.364;-1.504;2023-06-10T13:32:08;35.10;64.40
24410;DHT22;12543;53.364;-1.504;2023-06-10T13:34:36;35.10;64.80
24410;DHT22;12543;53.364;-1.504;2023-06-10T13:37:03;35.00;63.10
24410;DHT22;12543;53.364;-1.504;2023-06-10T13:39:31;35.00;62.40
24410;DHT22;12543;53.364;-1.504;2023-06-10T13:41:59;34.90;64.00
24410;DHT22;12543;53.364;-1.504;2023-06-10T13:44:26;34.80;63.40
24410;DHT22;12543;53.364;-1.504;2023-06-10T13:46:53;34.60;63.70
24410;DHT22;12543;53.364;-1.504;2023-06-10T13:49:20;34.50;63.40
24410;DHT22;12543;53.364;-1.504;2023-06-10T13:51:47;34.30;63.50
24410;DHT22;12543;53.364;-1.504;2023-06-10T13:54:14;34.10;63.50
24410;DHT22;12543;53.364;-1.504;2023-06-10T13:56:42;33.90;63.30
24410;DHT22;12543;53.364;-1.504;2023-06-10T13:59:11;33.60;62.10
24410;DHT22;12543;53.364;-1.504;2023-06-10T14:01:39;33.30;63.70
24410;DHT22;12543;53.364;-1.504;2023-06-10T14:04:07;33.10;63.00
24410;DHT22;12543;53.364;-1.504;2023-06-10T14:06:34;32.90;65.40
24410;DHT22;12543;53.364;-1.504;2023-06-10T14:09:01;32.70;62.90
24410;DHT22;12543;53.364;-1.504;2023-06-10T14:11:28;32.60;66.50
24410;DHT22;12543;53.364;-1.504;2023-06-10T14:13:58;32.40;65.10
24410;DHT22;12543;53.364;-1.504;2023-06-10T14:16:25;32.30;65.70
24410;DHT22;12543;53.364;-1.504;2023-06-10T14:18:52;32.10;64.00
24410;DHT22;12543;53.364;-1.504;2023-06-10T14:21:19;32.00;65.00
24410;DHT22;12543;53.364;-1.504;2023-06-10T14:23:50;31.90;65.90
24410;DHT22;12543;53.364;-1.504;2023-06-10T14:26:20;31.70;66.10
24410;DHT22;12543;53.364;-1.504;2023-06-10T14:28:48;31.40;65.90
24410;DHT22;12543;53.364;-1.504;2023-06-10T14:31:16;31.20;66.20
24410;DHT22;12543;53.364;-1.504;2023-06-10T14:33:43;31.00;66.50
24410;DHT22;12543;53.364;-1.504;2023-06-10T14:36:10;30.80;67.00
24410;DHT22;12543;53.364;-1.504;2023-06-10T14:38:38;30.60;66.90
24410;DHT22;12543;53.364;-1.504;2023-06-10T14:41:04;30.50;67.70
24410;DHT22;12543;53.364;-1.504;2023-06-10T14:43:32;30.40;68.30
24410;DHT22;12543;53.364;-1.504;2023-06-10T14:45:59;30.20;68.60
24410;DHT22;12543;53.364;-1.504;2023-06-10T14:48:26;30.20;69.40
24410;DHT22;12543;53.364;-1.504;2023-06-10T14:50:53;30.10;68.30
24410;DHT22;12543;53.364;-1.504;2023-06-10T14:53:22;30.00;67.70
24410;DHT22;12543;53.364;-1.504;2023-06-10T14:55:49;29.90;68.60
24410;DHT22;12543;53.364;-1.504;2023-06-10T14:58:16;29.90;68.40
24410;DHT22;12543;53.364;-1.504;2023-06-10T15:00:43;29.70;68.10
24410;DHT22;12543;53.364;-1.504;2023-06-10T15:03:10;29.60;68.30
24410;DHT22;12543;53.364;-1.504;2023-06-10T15:05:37;29.40;69.00
24410;DHT22;12543;53.364;-1.504;2023-06-10T15:08:04;29.30;68.60
24410;DHT22;12543;53.364;-1.504;2023-06-10T15:10:31;29.20;69.70
24410;DHT22;12543;53.364;-1.504;2023-06-10T15:12:59;29.10;67.30
24410;DHT22;12543;53.364;-1.504;2023-06-10T15:15:28;29.00;66.70
24410;DHT22;12543;53.364;-1.504;2023-06-10T15:17:55;28.80;67.20
24410;DHT22;12543;53.364;-1.504;2023-06-10T15:20:22;28.70;68.60
24410;DHT22;12543;53.364;-1.504;2023-06-10T15:22:49;28.70;68.50
24410;DHT22;12543;53.364;-1.504;2023-06-10T15:25:16;28.60;67.30
24410;DHT22;12543;53.364;-1.504;2023-06-10T15:27:57;28.50;67.70
24410;DHT22;12543;53.364;-1.504;2023-06-10T15:30:24;28.40;68.40